createdAt,value
2018-04-19T00:00:58.362Z,1024.61
2018-04-19T00:01:58.372Z,1024.61
2018-04-19T00:02:58.380Z,1024.59
2018-04-19T00:03:58.386Z,1024.62
2018-04-19T00:04:58.429Z,1024.60
2018-04-19T00:05:58.401Z,1024.60
2018-04-19T00:06:58.450Z,1024.59
2018-04-19T00:07:58.568Z,1024.60
2018-04-19T00:08:58.386Z,1024.58
2018-04-19T00:09:58.352Z,1024.60
2018-04-19T00:10:58.357Z,1024.62
2018-04-19T00:11:58.461Z,1024.59
2018-04-19T00:12:58.391Z,1024.59
2018-04-19T00:13:58.372Z,1024.63
2018-04-19T00:14:58.388Z,1024.59
2018-04-19T00:15:58.413Z,1024.63
2018-04-19T00:16:58.470Z,1024.61
2018-04-19T00:17:58.398Z,1024.60
2018-04-19T00:18:58.403Z,1024.61
2018-04-19T00:19:58.395Z,1024.59
2018-04-19T00:20:58.449Z,1024.59
2018-04-19T00:21:58.407Z,1024.59
2018-04-19T00:22:58.400Z,1024.61
2018-04-19T00:23:58.398Z,1024.57
2018-04-19T00:24:58.394Z,1024.57
2018-04-19T00:25:58.425Z,1024.56
2018-04-19T00:26:58.414Z,1024.52
2018-04-19T00:27:58.443Z,1024.50
2018-04-19T00:28:58.436Z,1024.52
2018-04-19T00:29:58.419Z,1024.53
2018-04-19T00:30:58.467Z,1024.52
2018-04-19T00:31:58.451Z,1024.48
2018-04-19T00:32:58.450Z,1024.49
2018-04-19T00:33:58.427Z,1024.48
2018-04-19T00:34:58.425Z,1024.48
2018-04-19T00:35:58.582Z,1024.46
2018-04-19T00:36:58.427Z,1024.44
2018-04-19T00:37:58.471Z,1024.47
2018-04-19T00:38:58.440Z,1024.43
2018-04-19T00:39:58.493Z,1024.45
2018-04-19T00:40:58.469Z,1024.39
2018-04-19T00:41:58.495Z,1024.38
2018-04-19T00:42:58.510Z,1024.37
2018-04-19T00:43:58.466Z,1024.35
2018-04-19T00:44:58.503Z,1024.35
2018-04-19T00:45:58.475Z,1024.33
2018-04-19T00:46:58.522Z,1024.40
2018-04-19T00:47:58.476Z,1024.34
2018-04-19T00:48:58.572Z,1024.32
2018-04-19T00:49:58.496Z,1024.35
2018-04-19T00:50:58.505Z,1024.26
2018-04-19T00:51:58.542Z,1024.29
2018-04-19T00:52:58.549Z,1024.28
2018-04-19T00:53:58.500Z,1024.25
2018-04-19T00:54:58.519Z,1024.29
2018-04-19T00:55:58.515Z,1024.27
2018-04-19T00:56:58.555Z,1024.26
2018-04-19T00:57:58.530Z,1024.24
2018-04-19T00:58:58.549Z,1024.23
2018-04-19T00:59:58.590Z,1024.20
2018-04-19T01:00:58.606Z,1024.20
2018-04-19T01:01:58.557Z,1024.22
2018-04-19T01:02:58.553Z,1024.20
2018-04-19T01:03:58.568Z,1024.16
2018-04-19T01:04:58.585Z,1024.21
2018-04-19T01:05:58.607Z,1024.15
2018-04-19T01:06:58.615Z,1024.16
2018-04-19T01:07:58.570Z,1024.18
2018-04-19T01:08:58.589Z,1024.13
2018-04-19T01:09:58.560Z,1024.11
2018-04-19T01:10:58.609Z,1024.13
2018-04-19T01:11:58.706Z,1024.11
2018-04-19T01:12:58.596Z,1024.11
2018-04-19T01:13:58.579Z,1024.09
2018-04-19T01:14:58.627Z,1024.09
2018-04-19T01:15:58.598Z,1024.08
2018-04-19T01:16:58.591Z,1024.07
2018-04-19T01:17:58.659Z,1024.11
2018-04-19T01:18:58.650Z,1024.11
2018-04-19T01:19:59.305Z,1024.10
2018-04-19T01:20:58.603Z,1024.10
2018-04-19T01:21:58.629Z,1024.06
2018-04-19T01:22:58.635Z,1024.10
2018-04-19T01:23:58.619Z,1024.07
2018-04-19T01:24:58.661Z,1024.06
2018-04-19T01:25:58.677Z,1024.07
2018-04-19T01:26:58.730Z,1024.06
2018-04-19T01:27:58.705Z,1024.03
2018-04-19T01:28:58.659Z,1024.02
2018-04-19T01:29:58.648Z,1024.02
2018-04-19T01:30:58.668Z,1024.03
2018-04-19T01:31:58.705Z,1023.99
2018-04-19T01:33:13.452Z,1024.01
2018-04-19T01:33:58.751Z,1024.00
2018-04-19T01:34:58.712Z,1024.02
2018-04-19T01:35:58.692Z,1024.03
2018-04-19T01:36:58.702Z,1024.03
2018-04-19T01:37:58.728Z,1024.03
2018-04-19T01:38:58.725Z,1024.04
2018-04-19T01:39:58.715Z,1024.03
2018-04-19T01:40:58.705Z,1024.05
2018-04-19T01:41:58.716Z,1024.05
2018-04-19T01:42:58.801Z,1024.03
2018-04-19T01:43:58.708Z,1024.01
2018-04-19T01:44:58.740Z,1024.02
2018-04-19T01:45:58.746Z,1024.02
2018-04-19T01:46:58.675Z,1024.04
2018-04-19T01:47:58.733Z,1023.98
2018-04-19T01:48:58.708Z,1024.01
2018-04-19T01:49:58.711Z,1024.02
2018-04-19T01:50:58.739Z,1023.97
2018-04-19T01:51:58.706Z,1024.00
2018-04-19T01:52:58.696Z,1024.00
2018-04-19T01:53:58.726Z,1023.98
2018-04-19T01:54:58.713Z,1023.92
2018-04-19T01:55:58.746Z,1023.98
2018-04-19T01:56:58.739Z,1023.98
2018-04-19T01:57:58.740Z,1023.91
2018-04-19T01:58:58.816Z,1023.92
2018-04-19T01:59:58.740Z,1023.90
2018-04-19T02:00:58.776Z,1023.87
2018-04-19T02:01:58.744Z,1023.90
2018-04-19T02:02:58.761Z,1023.92
2018-04-19T02:03:58.796Z,1023.92
2018-04-19T02:04:58.783Z,1023.92
2018-04-19T02:05:58.764Z,1023.90
2018-04-19T02:06:58.842Z,1023.90
2018-04-19T02:07:58.802Z,1023.89
2018-04-19T02:08:58.844Z,1023.88
2018-04-19T02:09:58.785Z,1023.92
2018-04-19T02:10:58.791Z,1023.88
2018-04-19T02:11:58.829Z,1023.85
2018-04-19T02:12:58.803Z,1023.85
2018-04-19T02:13:58.778Z,1023.82
2018-04-19T02:14:58.805Z,1023.85
2018-04-19T02:15:58.838Z,1023.86
2018-04-19T02:16:58.863Z,1023.85
2018-04-19T02:17:58.858Z,1023.82
2018-04-19T02:18:58.858Z,1023.84
2018-04-19T02:19:58.815Z,1023.80
2018-04-19T02:20:58.888Z,1023.78
2018-04-19T02:21:58.845Z,1023.78
2018-04-19T02:22:58.827Z,1023.80
2018-04-19T02:23:58.847Z,1023.74
2018-04-19T02:24:58.845Z,1023.76
2018-04-19T02:25:58.853Z,1023.77
2018-04-19T02:26:58.857Z,1023.83
2018-04-19T02:27:58.844Z,1023.76
2018-04-19T02:28:58.866Z,1023.74
2018-04-19T02:29:58.891Z,1023.77
2018-04-19T02:30:58.903Z,1023.72
2018-04-19T02:31:59.009Z,1023.74
2018-04-19T02:32:58.912Z,1023.73
2018-04-19T02:33:58.970Z,1023.71
2018-04-19T02:34:58.912Z,1023.65
2018-04-19T02:35:58.924Z,1023.67
2018-04-19T02:36:58.962Z,1023.67
2018-04-19T02:37:58.963Z,1023.63
2018-04-19T02:38:58.919Z,1023.64
2018-04-19T02:39:58.923Z,1023.67
2018-04-19T02:40:58.952Z,1023.64
2018-04-19T02:41:58.916Z,1023.63
2018-04-19T02:42:58.951Z,1023.61
2018-04-19T02:43:58.943Z,1023.60
2018-04-19T02:44:58.930Z,1023.59
2018-04-19T02:45:58.972Z,1023.58
2018-04-19T02:46:58.916Z,1023.56
2018-04-19T02:47:58.990Z,1023.57
2018-04-19T02:48:58.922Z,1023.56
2018-04-19T02:49:58.952Z,1023.57
2018-04-19T02:50:58.950Z,1023.54
2018-04-19T02:51:58.938Z,1023.53
2018-04-19T02:52:58.925Z,1023.51
2018-04-19T02:53:58.959Z,1023.50
2018-04-19T02:54:58.922Z,1023.48
2018-04-19T02:55:58.949Z,1023.47
2018-04-19T02:56:58.953Z,1023.45
2018-04-19T02:57:58.978Z,1023.43
2018-04-19T02:58:58.990Z,1023.43
2018-04-19T02:59:58.964Z,1023.46
2018-04-19T03:00:58.944Z,1023.43
2018-04-19T03:01:59.011Z,1023.42
2018-04-19T03:02:58.931Z,1023.43
2018-04-19T03:03:58.982Z,1023.44
2018-04-19T03:04:59.018Z,1023.41
2018-04-19T03:05:58.981Z,1023.40
2018-04-19T03:06:59.030Z,1023.38
2018-04-19T03:07:58.984Z,1023.37
2018-04-19T03:08:59.005Z,1023.37
2018-04-19T03:09:58.957Z,1023.39
2018-04-19T03:10:59.850Z,1023.38
2018-04-19T03:11:58.980Z,1023.37
2018-04-19T03:12:58.989Z,1023.39
2018-04-19T03:13:59.001Z,1023.37
2018-04-19T03:14:58.983Z,1023.36
2018-04-19T03:15:59.065Z,1023.36
2018-04-19T03:16:58.997Z,1023.32
2018-04-19T03:17:59.020Z,1023.32
2018-04-19T03:18:59.048Z,1023.33
2018-04-19T03:19:59.020Z,1023.31
2018-04-19T03:20:59.050Z,1023.32
2018-04-19T03:21:59.058Z,1023.34
2018-04-19T03:22:59.039Z,1023.28
2018-04-19T03:23:59.037Z,1023.31
2018-04-19T03:24:59.088Z,1023.28
2018-04-19T03:25:59.119Z,1023.26
2018-04-19T03:26:59.049Z,1023.25
2018-04-19T03:27:59.081Z,1023.25
2018-04-19T03:28:59.054Z,1023.29
2018-04-19T03:29:59.071Z,1023.24
2018-04-19T03:30:59.031Z,1023.22
2018-04-19T03:31:59.072Z,1023.20
2018-04-19T03:32:59.096Z,1023.19
2018-04-19T03:33:59.054Z,1023.22
2018-04-19T03:34:59.092Z,1023.22
2018-04-19T03:35:59.061Z,1023.23
2018-04-19T03:36:59.144Z,1023.22
2018-04-19T03:37:59.054Z,1023.21
2018-04-19T03:38:59.080Z,1023.27
2018-04-19T03:39:59.091Z,1023.24
2018-04-19T03:40:59.103Z,1023.23
2018-04-19T03:41:59.134Z,1023.24
2018-04-19T03:42:59.102Z,1023.20
2018-04-19T03:43:59.128Z,1023.21
2018-04-19T03:44:59.125Z,1023.19
2018-04-19T03:45:59.107Z,1023.23
2018-04-19T03:46:59.103Z,1023.21
2018-04-19T03:47:59.173Z,1023.23
2018-04-19T03:48:59.098Z,1023.23
2018-04-19T03:49:59.112Z,1023.22
2018-04-19T03:50:59.256Z,1023.22
2018-04-19T03:51:59.156Z,1023.21
2018-04-19T03:52:59.123Z,1023.25
2018-04-19T03:53:59.151Z,1023.26
2018-04-19T03:54:59.176Z,1023.23
2018-04-19T03:55:59.144Z,1023.25
2018-04-19T03:56:59.115Z,1023.24
2018-04-19T03:57:59.219Z,1023.23
2018-04-19T03:58:59.197Z,1023.22
2018-04-19T03:59:59.131Z,1023.24
2018-04-19T04:00:59.302Z,1023.18
2018-04-19T04:01:59.163Z,1023.18
2018-04-19T04:02:59.166Z,1023.18
2018-04-19T04:03:59.162Z,1023.19
2018-04-19T04:04:59.167Z,1023.21
2018-04-19T04:05:59.176Z,1023.20
2018-04-19T04:06:59.232Z,1023.20
2018-04-19T04:07:59.231Z,1023.18
2018-04-19T04:08:59.160Z,1023.16
2018-04-19T04:09:59.173Z,1023.18
2018-04-19T04:10:59.259Z,1023.19
2018-04-19T04:11:59.166Z,1023.20
2018-04-19T04:12:59.253Z,1023.18
2018-04-19T04:13:59.197Z,1023.18
2018-04-19T04:14:59.249Z,1023.21
2018-04-19T04:15:59.208Z,1023.15
2018-04-19T04:16:59.227Z,1023.16
2018-04-19T04:17:59.186Z,1023.17
2018-04-19T04:18:59.228Z,1023.20
2018-04-19T04:19:59.233Z,1023.22
2018-04-19T04:20:59.232Z,1023.25
2018-04-19T04:21:59.250Z,1023.25
2018-04-19T04:22:59.230Z,1023.27
2018-04-19T04:23:59.238Z,1023.26
2018-04-19T04:24:59.261Z,1023.27
2018-04-19T04:25:59.272Z,1023.25
2018-04-19T04:26:59.251Z,1023.26
2018-04-19T04:27:59.213Z,1023.26
2018-04-19T04:28:59.246Z,1023.27
2018-04-19T04:29:59.273Z,1023.26
2018-04-19T04:30:59.234Z,1023.26
2018-04-19T04:31:59.325Z,1023.28
2018-04-19T04:32:59.242Z,1023.28
2018-04-19T04:33:59.274Z,1023.30
2018-04-19T04:34:59.304Z,1023.30
2018-04-19T04:35:59.295Z,1023.32
2018-04-19T04:36:59.279Z,1023.35
2018-04-19T04:37:59.276Z,1023.32
2018-04-19T04:38:59.295Z,1023.32
2018-04-19T04:39:59.314Z,1023.33
2018-04-19T04:40:59.276Z,1023.31
2018-04-19T04:41:59.282Z,1023.29
2018-04-19T04:42:59.319Z,1023.32
2018-04-19T04:43:59.279Z,1023.36
2018-04-19T04:44:59.270Z,1023.37
2018-04-19T04:45:59.311Z,1023.32
2018-04-19T04:46:59.307Z,1023.35
2018-04-19T04:47:59.328Z,1023.37
2018-04-19T04:48:59.267Z,1023.40
2018-04-19T04:49:59.877Z,1023.41
2018-04-19T04:50:59.380Z,1023.40
2018-04-19T04:51:59.335Z,1023.40
2018-04-19T04:52:59.298Z,1023.37
2018-04-19T04:53:59.343Z,1023.34
2018-04-19T04:54:59.291Z,1023.36
2018-04-19T04:55:59.323Z,1023.36
2018-04-19T04:56:59.364Z,1023.30
2018-04-19T04:57:59.435Z,1023.34
2018-04-19T04:58:59.336Z,1023.35
2018-04-19T04:59:59.320Z,1023.36
2018-04-19T05:00:59.334Z,1023.35
2018-04-19T05:01:59.395Z,1023.37
2018-04-19T05:02:59.395Z,1023.37
2018-04-19T05:03:59.372Z,1023.37
2018-04-19T05:04:59.333Z,1023.39
2018-04-19T05:05:59.377Z,1023.38
2018-04-19T05:06:59.373Z,1023.38
2018-04-19T05:07:59.369Z,1023.42
2018-04-19T05:08:59.350Z,1023.43
2018-04-19T05:09:59.377Z,1023.46
2018-04-19T05:10:59.388Z,1023.46
2018-04-19T05:11:59.407Z,1023.45
2018-04-19T05:12:59.360Z,1023.46
2018-04-19T05:13:59.423Z,1023.43
2018-04-19T05:14:59.424Z,1023.42
2018-04-19T05:15:59.389Z,1023.40
2018-04-19T05:16:59.362Z,1023.46
2018-04-19T05:17:59.398Z,1023.45
2018-04-19T05:18:59.438Z,1023.45
2018-04-19T05:19:59.477Z,1023.50
2018-04-19T05:20:59.390Z,1023.49
2018-04-19T05:21:59.385Z,1023.44
2018-04-19T05:22:59.369Z,1023.46
2018-04-19T05:23:59.465Z,1023.47
2018-04-19T05:24:59.447Z,1023.49
2018-04-19T05:25:59.473Z,1023.52
2018-04-19T05:26:59.430Z,1023.55
2018-04-19T05:27:59.470Z,1023.57
2018-04-19T05:29:00.391Z,1023.58
2018-04-19T05:29:59.444Z,1023.62
2018-04-19T05:30:59.422Z,1023.62
2018-04-19T05:31:59.423Z,1023.60
2018-04-19T05:32:59.514Z,1023.61
2018-04-19T05:33:59.448Z,1023.61
2018-04-19T05:34:59.461Z,1023.65
2018-04-19T05:35:59.899Z,1023.73
2018-04-19T05:36:59.497Z,1023.75
2018-04-19T05:37:59.514Z,1023.70
2018-04-19T05:38:59.466Z,1023.70
2018-04-19T05:39:59.460Z,1023.86
2018-04-19T05:40:59.487Z,1023.87
2018-04-19T05:41:59.454Z,1023.90
2018-04-19T05:42:59.489Z,1023.89
2018-04-19T05:44:00.404Z,1023.90
2018-04-19T05:44:59.499Z,1023.91
2018-04-19T05:45:59.520Z,1023.94
2018-04-19T05:46:59.523Z,1024.00
2018-04-19T05:47:59.497Z,1024.01
2018-04-19T05:48:59.575Z,1024.06
2018-04-19T05:49:59.474Z,1024.03
2018-04-19T05:50:59.520Z,1023.98
2018-04-19T05:51:59.482Z,1023.99
2018-04-19T05:52:59.512Z,1023.99
2018-04-19T05:53:59.511Z,1024.09
2018-04-19T05:54:59.493Z,1024.09
2018-04-19T05:55:59.588Z,1024.10
2018-04-19T05:56:59.655Z,1024.11
2018-04-19T05:57:59.501Z,1024.14
2018-04-19T05:58:59.540Z,1024.16
2018-04-19T05:59:59.558Z,1024.18
2018-04-19T06:00:59.666Z,1024.25
2018-04-19T06:01:59.564Z,1024.27
2018-04-19T06:02:59.584Z,1024.26
2018-04-19T06:03:59.632Z,1024.29
2018-04-19T06:04:59.555Z,1024.38
2018-04-19T06:05:59.605Z,1024.43
2018-04-19T06:06:59.602Z,1024.52
2018-04-19T06:07:59.555Z,1024.77
2018-04-19T06:08:59.618Z,1025.10
2018-04-19T06:09:59.600Z,1025.46
2018-04-19T06:11:00.021Z,1025.87
2018-04-19T06:11:59.617Z,1026.07
2018-04-19T06:12:59.602Z,1026.36
2018-04-19T06:13:59.664Z,1027.01
2018-04-19T06:14:59.664Z,1028.55
2018-04-19T06:15:59.601Z,1028.78
2018-04-19T06:16:59.663Z,1025.64
2018-04-19T06:18:00.768Z,1026.18
2018-04-19T06:18:59.697Z,1027.62
2018-04-19T06:19:59.731Z,1027.16
2018-04-19T06:20:59.665Z,1026.60
2018-04-19T06:21:59.708Z,1026.40
2018-04-19T06:23:10.492Z,1026.36
2018-04-19T06:23:59.935Z,1026.40
2018-04-19T06:24:59.893Z,1026.38
2018-04-19T06:25:59.714Z,1026.33
2018-04-19T06:26:59.857Z,1026.18
2018-04-19T06:27:59.771Z,1025.92
2018-04-19T06:28:59.767Z,1025.64
2018-04-19T06:30:00.419Z,1025.67
2018-04-19T06:30:59.798Z,1025.94
2018-04-19T06:31:59.808Z,1026.18
2018-04-19T06:33:06.688Z,1026.07
2018-04-19T06:33:59.982Z,1025.85
2018-04-19T06:35:00.418Z,1025.62
2018-04-19T06:35:59.846Z,1025.71
2018-04-19T06:36:59.835Z,1025.89
2018-04-19T06:37:59.783Z,1025.85
2018-04-19T06:38:59.898Z,1025.74
2018-04-19T06:39:59.837Z,1025.69
2018-04-19T06:40:59.921Z,1025.77
2018-04-19T06:41:59.868Z,1025.83
2018-04-19T06:42:59.882Z,1025.71
2018-04-19T06:44:00.032Z,1025.62
2018-04-19T06:44:59.817Z,1025.72
2018-04-19T06:45:59.913Z,1025.85
2018-04-19T06:46:59.890Z,1025.99
2018-04-19T06:47:59.993Z,1026.21
2018-04-19T06:48:59.921Z,1026.16
2018-04-19T06:49:59.917Z,1025.94
2018-04-19T06:50:59.948Z,1025.86
2018-04-19T06:51:59.957Z,1025.99
2018-04-19T06:52:59.996Z,1026.16
2018-04-19T06:53:59.955Z,1026.19
2018-04-19T06:55:15.140Z,1026.26
2018-04-19T06:55:59.943Z,1026.35
2018-04-19T06:56:59.979Z,1026.42
2018-04-19T06:58:03.137Z,1026.35
2018-04-19T06:59:00.055Z,1026.28
2018-04-19T07:00:00.100Z,1026.18
2018-04-19T07:01:00.082Z,1026.34
2018-04-19T07:02:00.333Z,1026.81
2018-04-19T07:03:00.207Z,1027.04
2018-04-19T07:04:00.111Z,1026.85
2018-04-19T07:05:00.111Z,1026.67
2018-04-19T07:06:00.117Z,1026.86
2018-04-19T07:07:01.065Z,1027.21
2018-04-19T07:08:00.940Z,1027.53
2018-04-19T07:09:00.960Z,1027.80
2018-04-19T07:10:00.295Z,1027.98
2018-04-19T07:11:00.161Z,1028.82
2018-04-19T07:12:00.182Z,1029.39
2018-04-19T07:13:00.356Z,1029.05
2018-04-19T07:14:00.509Z,1027.88
2018-04-19T07:15:00.270Z,1026.81
2018-04-19T07:16:00.260Z,1026.12
2018-04-19T07:17:00.321Z,1025.70
2018-04-19T07:18:00.388Z,1025.57
2018-04-19T07:19:00.391Z,1025.53
2018-04-19T07:20:00.410Z,1025.51
2018-04-19T07:21:00.958Z,1025.52
2018-04-19T07:22:00.452Z,1025.49
2018-04-19T07:23:01.201Z,1025.49
2018-04-19T07:24:03.354Z,1025.55
2018-04-19T07:25:07.552Z,1025.69
2018-04-19T07:28:02.798Z,1026.42
2018-04-19T07:28:32.415Z,1026.45
2018-04-19T07:29:32.414Z,1026.61
2018-04-19T07:30:32.435Z,1026.75
2018-04-19T07:31:32.501Z,1026.67
2018-04-19T07:32:33.009Z,1026.56
2018-04-19T07:33:32.433Z,1026.49
2018-04-19T07:34:32.442Z,1026.61
2018-04-19T07:35:32.451Z,1026.77
2018-04-19T07:36:32.682Z,1026.72
2018-04-19T07:37:32.642Z,1026.72
2018-04-19T07:38:32.533Z,1026.73
2018-04-19T07:39:32.525Z,1026.80
2018-04-19T07:40:32.516Z,1026.93
2018-04-19T07:41:32.561Z,1026.95
2018-04-19T07:42:33.422Z,1026.84
2018-04-19T07:43:32.587Z,1027.03
2018-04-19T07:44:32.597Z,1027.03
2018-04-19T07:45:32.611Z,1027.02
2018-04-19T07:46:33.408Z,1027.07
2018-04-19T07:47:32.639Z,1027.15
2018-04-19T07:48:33.417Z,1027.11
2018-04-19T07:49:32.765Z,1027.47
2018-04-19T07:50:32.685Z,1027.64
2018-04-19T07:51:32.763Z,1027.65
2018-04-19T07:52:32.752Z,1027.71
2018-04-19T07:53:32.760Z,1027.89
2018-04-19T07:54:32.944Z,1027.94
2018-04-19T07:55:33.446Z,1028.16
2018-04-19T07:56:32.778Z,1028.60
2018-04-19T07:57:33.823Z,1028.96
2018-04-19T07:58:33.091Z,1029.22
2018-04-19T07:59:33.139Z,1029.19
2018-04-19T08:00:33.130Z,1029.72
2018-04-19T08:01:32.851Z,1030.46
2018-04-19T08:02:33.090Z,1030.55
2018-04-19T08:03:32.952Z,1030.65
2018-04-19T08:04:34.083Z,1030.76
2018-04-19T08:05:33.021Z,1030.77
2018-04-19T08:06:33.601Z,1031.50
2018-04-19T08:07:33.054Z,1032.53
2018-04-19T08:08:32.969Z,1032.74
2018-04-19T08:09:32.990Z,1032.53
2018-04-19T08:10:33.036Z,1033.17
2018-04-19T08:11:33.057Z,1033.01
2018-04-19T08:12:33.048Z,1033.28
2018-04-19T08:13:33.163Z,1034.28
2018-04-19T08:14:34.221Z,1034.37
2018-04-19T08:15:33.153Z,1033.08
2018-04-19T08:16:33.166Z,1033.08
2018-04-19T08:17:33.358Z,1033.94
2018-04-19T08:18:33.201Z,1033.95
2018-04-19T08:19:33.245Z,1033.91
2018-04-19T08:20:33.200Z,1034.03
2018-04-19T08:21:33.172Z,1035.45
2018-04-19T08:22:33.199Z,1036.07
2018-04-19T08:23:33.230Z,1036.54
2018-04-19T08:24:33.314Z,1037.46
2018-04-19T08:25:34.728Z,1037.29
2018-04-19T08:26:33.326Z,1037.18
2018-04-19T08:27:33.317Z,1036.91
2018-04-19T08:28:33.315Z,1036.62
2018-04-19T08:29:33.317Z,1036.64
2018-04-19T08:30:33.510Z,1036.90
2018-04-19T08:31:33.390Z,1037.70
2018-04-19T08:32:33.457Z,1038.48
2018-04-19T08:33:33.421Z,1038.47
2018-04-19T08:34:33.411Z,1039.14
2018-04-19T08:35:33.444Z,1039.11
2018-04-19T08:36:33.467Z,1038.81
2018-04-19T08:37:33.533Z,1038.24
2018-04-19T08:38:33.512Z,1037.09
2018-04-19T08:39:33.496Z,1036.75
2018-04-19T08:40:33.539Z,1037.66
2018-04-19T08:41:33.581Z,1037.21
2018-04-19T08:42:33.619Z,1036.54
2018-04-19T08:43:33.610Z,1036.43
2018-04-19T08:44:33.700Z,1035.04
2018-04-19T08:45:33.663Z,1033.83
2018-04-19T08:46:33.657Z,1033.57
2018-04-19T08:47:33.660Z,1034.79
2018-04-19T08:48:33.702Z,1035.61
2018-04-19T08:49:33.707Z,1035.22
2018-04-19T08:50:33.759Z,1034.82
2018-04-19T08:51:33.796Z,1035.45
2018-04-19T08:52:33.868Z,1034.45
2018-04-19T08:53:34.452Z,1033.35
2018-04-19T08:54:33.854Z,1033.20
2018-04-19T08:55:34.108Z,1033.98
2018-04-19T08:56:33.936Z,1038.35
2018-04-19T08:57:33.934Z,1038.07
2018-04-19T08:58:34.181Z,1030.83
2018-04-19T08:59:33.992Z,1026.40
2018-04-19T09:00:33.956Z,1026.16
2018-04-19T09:01:33.951Z,1026.00
2018-04-19T09:02:34.009Z,1025.91
2018-04-19T09:03:33.982Z,1025.80
2018-04-19T09:04:33.999Z,1025.73
2018-04-19T09:05:34.016Z,1025.71
2018-04-19T09:06:34.061Z,1025.68
2018-04-19T09:07:34.085Z,1025.67
2018-04-19T09:08:34.095Z,1025.66
2018-04-19T09:09:34.206Z,1025.61
2018-04-19T09:10:34.138Z,1025.73
2018-04-19T09:11:34.176Z,1025.75
2018-04-19T09:12:34.177Z,1025.75
2018-04-19T09:13:34.232Z,1025.76
2018-04-19T09:14:34.255Z,1025.71
2018-04-19T09:15:34.241Z,1025.73
2018-04-19T09:16:34.256Z,1025.82
2018-04-19T09:17:34.279Z,1025.99
2018-04-19T09:18:34.313Z,1029.56
2018-04-19T09:19:34.368Z,1031.66
2018-04-19T09:20:34.341Z,1030.15
2018-04-19T09:21:34.375Z,1029.27
2018-04-19T09:22:34.423Z,1028.86
2018-04-19T09:23:34.429Z,1028.96
2018-04-19T09:24:34.972Z,1028.26
2018-04-19T09:25:34.457Z,1027.61
2018-04-19T09:26:34.471Z,1027.77
2018-04-19T09:27:34.529Z,1027.62
2018-04-19T09:28:34.559Z,1027.42
2018-04-19T09:29:34.555Z,1027.40
2018-04-19T09:30:34.670Z,1027.14
2018-04-19T09:31:34.728Z,1026.94
2018-04-19T09:32:34.662Z,1026.72
2018-04-19T09:33:34.630Z,1026.47
2018-04-19T09:34:34.788Z,1026.45
2018-04-19T09:35:34.683Z,1026.23
2018-04-19T09:36:34.811Z,1026.17
2018-04-19T09:37:34.805Z,1026.01
2018-04-19T09:38:34.757Z,1025.75
2018-04-19T09:39:34.774Z,1025.65
2018-04-19T09:40:34.797Z,1025.74
2018-04-19T09:41:35.016Z,1025.76
2018-04-19T09:42:34.849Z,1025.69
2018-04-19T09:43:34.922Z,1025.72
2018-04-19T09:44:35.001Z,1025.80
2018-04-19T09:45:34.973Z,1025.89
2018-04-19T09:46:35.105Z,1026.02
2018-04-19T09:47:35.022Z,1026.11
2018-04-19T09:48:35.088Z,1026.19
2018-04-19T09:49:37.557Z,1026.28
2018-04-19T09:50:35.047Z,1026.44
2018-04-19T09:51:35.068Z,1026.50
2018-04-19T09:52:35.201Z,1026.49
2018-04-19T09:53:35.172Z,1026.64
2018-04-19T09:54:35.188Z,1026.72
2018-04-19T09:55:35.179Z,1026.59
2018-04-19T09:56:35.187Z,1026.72
2018-04-19T09:57:35.233Z,1026.84
2018-04-19T09:58:35.265Z,1026.82
2018-04-19T09:59:35.257Z,1026.99
2018-04-19T10:00:35.276Z,1027.24
2018-04-19T10:01:35.346Z,1027.39
2018-04-19T10:02:35.343Z,1027.78
2018-04-19T10:03:35.375Z,1028.08
2018-04-19T10:04:35.462Z,1028.08
2018-04-19T10:05:35.411Z,1027.98
2018-04-19T10:06:35.988Z,1027.48
2018-04-19T10:07:35.463Z,1027.12
2018-04-19T10:08:35.514Z,1026.58
2018-04-19T10:09:35.512Z,1026.10
2018-04-19T10:10:36.994Z,1025.74
2018-04-19T10:11:35.636Z,1025.50
2018-04-19T10:12:35.804Z,1025.34
2018-04-19T10:13:35.603Z,1025.23
2018-04-19T10:14:35.655Z,1025.05
2018-04-19T10:15:35.741Z,1024.96
2018-04-19T10:16:35.845Z,1024.92
2018-04-19T10:17:35.834Z,1024.86
2018-04-19T10:18:35.747Z,1024.79
2018-04-19T10:19:35.844Z,1024.71
2018-04-19T10:20:35.782Z,1024.65
2018-04-19T10:21:35.867Z,1024.65
2018-04-19T10:22:35.882Z,1024.60
2018-04-19T10:23:36.502Z,1024.60
2018-04-19T10:24:36.003Z,1024.60
2018-04-19T10:25:35.943Z,1024.55
2018-04-19T10:26:35.946Z,1024.51
2018-04-19T10:27:36.012Z,1024.56
2018-04-19T10:28:36.012Z,1024.47
2018-04-19T10:29:36.078Z,1024.38
2018-04-19T10:30:36.050Z,1024.48
2018-04-19T10:31:36.099Z,1024.39
2018-04-19T10:32:36.094Z,1024.40
2018-04-19T10:33:36.154Z,1024.34
2018-04-19T10:34:36.292Z,1024.35
2018-04-19T10:35:36.176Z,1024.32
2018-04-19T10:36:36.278Z,1024.31
2018-04-19T10:37:37.006Z,1024.22
2018-04-19T10:38:36.408Z,1024.34
2018-04-19T10:39:36.340Z,1024.25
2018-04-19T10:40:36.413Z,1024.29
2018-04-19T10:41:36.456Z,1024.20
2018-04-19T10:42:36.473Z,1024.28
2018-04-19T10:43:36.444Z,1024.23
2018-04-19T10:44:36.487Z,1024.13
2018-04-19T10:45:36.504Z,1024.18
2018-04-19T10:46:36.575Z,1024.19
2018-04-19T10:47:36.634Z,1024.17
2018-04-19T10:48:36.546Z,1024.17
2018-04-19T10:49:36.577Z,1024.20
2018-04-19T10:50:36.726Z,1024.12
2018-04-19T10:51:37.523Z,1024.19
2018-04-19T10:52:36.726Z,1024.11
2018-04-19T10:53:36.818Z,1024.00
2018-04-19T10:54:36.791Z,1024.08
2018-04-19T10:55:36.933Z,1024.05
2018-04-19T10:56:36.884Z,1024.04
2018-04-19T10:57:36.771Z,1024.03
2018-04-19T10:58:36.868Z,1024.00
2018-04-19T10:59:36.921Z,1024.05
2018-04-19T11:00:37.037Z,1023.89
2018-04-19T11:01:36.942Z,1023.74
2018-04-19T11:02:37.037Z,1023.54
2018-04-19T11:03:36.975Z,1023.48
2018-04-19T11:04:37.055Z,1023.46
2018-04-19T11:05:37.098Z,1023.34
2018-04-19T11:06:37.031Z,1023.32
2018-04-19T11:07:37.045Z,1023.32
2018-04-19T11:08:37.197Z,1023.30
2018-04-19T11:09:37.072Z,1023.33
2018-04-19T11:10:37.130Z,1023.28
2018-04-19T11:11:37.107Z,1023.20
2018-04-19T11:12:37.175Z,1023.22
2018-04-19T11:13:37.121Z,1023.25
2018-04-19T11:14:37.134Z,1023.20
2018-04-19T11:15:37.225Z,1023.15
2018-04-19T11:16:37.156Z,1023.15
2018-04-19T11:17:38.032Z,1023.15
2018-04-19T11:18:37.260Z,1023.10
2018-04-19T11:19:37.385Z,1023.13
2018-04-19T11:20:37.330Z,1023.12
2018-04-19T11:21:37.453Z,1023.14
2018-04-19T11:22:37.383Z,1023.10
2018-04-19T11:23:37.331Z,1023.06
2018-04-19T11:24:37.391Z,1023.03
2018-04-19T11:25:37.359Z,1023.00
2018-04-19T11:26:37.505Z,1022.99
2018-04-19T11:27:37.592Z,1023.02
2018-04-19T11:28:37.365Z,1022.94
2018-04-19T11:29:38.041Z,1022.97
2018-04-19T11:30:37.492Z,1023.01
2018-04-19T11:31:37.400Z,1022.98
2018-04-19T11:32:37.415Z,1022.90
2018-04-19T11:33:37.463Z,1022.98
2018-04-19T11:34:37.455Z,1022.95
2018-04-19T11:35:38.042Z,1022.97
2018-04-19T11:36:37.510Z,1022.91
2018-04-19T11:37:37.527Z,1022.95
2018-04-19T11:38:37.539Z,1022.84
2018-04-19T11:39:37.548Z,1022.85
2018-04-19T11:40:37.607Z,1022.88
2018-04-19T11:41:37.562Z,1022.87
2018-04-19T11:42:37.604Z,1022.80
2018-04-19T11:43:37.615Z,1022.83
2018-04-19T11:44:38.745Z,1022.85
2018-04-19T11:45:40.139Z,1022.84
2018-04-19T11:46:37.621Z,1022.84
2018-04-19T11:47:37.756Z,1022.87
2018-04-19T11:48:37.668Z,1022.85
2018-04-19T11:49:37.868Z,1022.85
2018-04-19T11:50:38.549Z,1022.93
2018-04-19T11:51:37.708Z,1022.84
2018-04-19T11:52:37.834Z,1022.77
2018-04-19T11:53:37.943Z,1022.79
2018-04-19T11:54:37.815Z,1022.78
2018-04-19T11:55:37.787Z,1022.77
2018-04-19T11:56:38.152Z,1022.78
2018-04-19T11:57:38.254Z,1022.77
2018-04-19T11:58:37.915Z,1022.78
2018-04-19T11:59:39.565Z,1022.80
2018-04-19T12:00:38.238Z,1022.74
2018-04-19T12:01:37.937Z,1022.66
2018-04-19T12:02:39.326Z,1022.75
2018-04-19T12:03:38.428Z,1022.72
2018-04-19T12:04:38.123Z,1022.72
2018-04-19T12:05:37.847Z,1022.73
2018-04-19T12:06:38.035Z,1022.80
2018-04-19T12:07:38.698Z,1022.75